West Lebanon, Indiana
Current Conditions -  °F | °C
As of 11:55 AM on Monday 22 Dec 2014 (Local Time) from KDNV Reporting Station
Drizzle Drizzle  
Wind Chill: -2°   Ceiling: 6500
Heat Index:   Visibility: 5mi
Dew Point:   Wind: 9mph
Humidity: 94%   Direction: 120°ESE
Pressure: 29.8"   Gusts: NA
Location:  40.27°N, 87.39°W
Report Text: KDNV 221655Z AUTO 12008KT 5SM -DZ BKN065 OVC075 02/01 A2980 RMK AO2 P0001 T00200012
Loading
Personal Weather Stations






























Interactive Weather Map New forecast layout! Learn more

10-Day Weather Forecast

Advertisements
Track Severe Weather on mobile